Terminal Aerodrome Forecast
Issued by NWS

Home | Current Version | Previous Version | Text Only | Print | Product List | Glossary On
Versions: 1 2 3 4 5 6 7 8 9 10 11 12 13 14 15 16 17 18 19 20 21 22 23 24 25 26 27
000
FTUS45 KBOU 131125
TAFBJC
TAF
KBJC 131125Z 1312/1412 01011KT 4SM -SNRA SCT008 OVC015
      TEMPO 1312/1314 2SM -SN BR OVC006
     FM131400 03011KT 1 1/2SM -SN BR OVC006
     FM131700 01013KT 3/4SM -SN BR OVC003
      TEMPO 1320/1324 1/4SM +SN FZFG VV001
     FM140300 35010KT 3SM -SN BR OVC008
     FM140500 33010KT 5SM -SN BR OVC015
     FM140800 31010KT P6SM SCT030 BKN060=

USA.gov is the U.S. government's official web portal to all federal, state and local government web resources and services.